Terminal Aerodrome Forecast
Issued by NWS

Home | Current Version | Previous Version | Text Only | Print | Product List | Glossary On
Versions: 1 2 3 4 5 6 7 8 9 10 11 12 13
000
FTUS44 KLIX 051057 AAA
TAFMCB
TAF AMD
KMCB 051057Z 0511/0606 14003KT P6SM SKC
      TEMPO 0511/0513 1/2SM FG VV002
     FM051500 25005KT P6SM SCT035
     FM051900 23007KT P6SM VCTS SCT040CB
     FM060100 21003KT P6SM SCT100 BKN250=

USA.gov is the U.S. government's official web portal to all federal, state and local government web resources and services.